Puerto Banus, Marbella

>

This is an optional block (switch it off / on) in the settings - file ($SITE['banners'] = false;)

You can display ads, any other important text or photo’s using text / html or PHP code.

You can place one or more at the top and or bottom and it can all be different for content / size .



Meteosat more information blitzortung!


Radar lluvias  rain snow radar


Visita nuestra red de sitios de meteo:

Documentation for the template used

MeteoibericaRed estaciones Meteorologicas

MeteoclimaticRed estaciones Meteorologicas



Sin Advertencias climatologicas .En este momento tenemos Nivel Verde.    No hay Alarmas

Pagina Historial Weather Underground texto

Diario Resumen Diciembre 20, 2017 Unidades:  Métrico    impérial   Tanto
« Anterior Dia
Siguiente Dia »
Diario Semana Mensual Anual Personalizada
  Maxima: Minima: Media:
Temperatura: 16.2 °C 9.5 °C 12.3 °C
Punto de rocío: 9.6 °C 6.2 °C 7.5 °C
Humedad: 80 % 63 % 73 %
Velocidad del Viento: 20.4 km/h 0.0 km/h 11.3 km/h
Ráfagas de viento: 20.4 km/h - -
Viento:- - SW
Pression baro: 1032.7 hPa 1029.7 hPa -
Précipitaciones: 0.0 mm    
Historical Graphs
 
 
Datos de tabla para Diciembre 20, 2017
Tiempo Temperatura Punto de rocío Pression baro Viento Velocidad del Viento Ráfagas de viento Humedad Las precipitaciones Rate ( Hora )
00:00 11.1 °C 6.7 °C 1030.4 hPa North 18.5 km/h 18.5 km/h 74 % 0.0 mm
00:05 11.1 °C 6.6 °C 1030.4 hPa North 20.4 km/h 20.4 km/h 74 % 0.0 mm
00:07 11.0 °C 6.6 °C 1030.4 hPa North 20.4 km/h 20.4 km/h 74 % 0.0 mm
00:10 11.0 °C 6.6 °C 1030.4 hPa NNE 16.7 km/h 16.7 km/h 74 % 0.0 mm
00:15 11.0 °C 6.6 °C 1030.4 hPa North 16.7 km/h 16.7 km/h 74 % 0.0 mm
00:18 11.0 °C 6.6 °C 1030.4 hPa North 14.8 km/h 14.8 km/h 74 % 0.0 mm
00:21 11.0 °C 6.6 °C 1030.4 hPa NNE 17.7 km/h 17.7 km/h 74 % 0.0 mm
00:24 11.0 °C 6.6 °C 1030.4 hPa NNW 18.5 km/h 18.5 km/h 74 % 0.0 mm
00:27 11.0 °C 6.6 °C 1030.4 hPa North 14.8 km/h 14.8 km/h 74 % 0.0 mm
00:32 10.9 °C 6.5 °C 1030.4 hPa North 18.5 km/h 18.5 km/h 74 % 0.0 mm
00:33 10.9 °C 6.5 °C 1030.4 hPa North 14.8 km/h 14.8 km/h 74 % 0.0 mm
00:38 10.9 °C 6.5 °C 1030.4 hPa North 16.7 km/h 16.7 km/h 74 % 0.0 mm
00:43 10.9 °C 6.5 °C 1030.4 hPa North 18.5 km/h 18.5 km/h 74 % 0.0 mm
00:44 10.9 °C 6.5 °C 1030.4 hPa North 18.5 km/h 18.5 km/h 74 % 0.0 mm
00:49 10.9 °C 6.5 °C 1030.4 hPa North 16.7 km/h 16.7 km/h 74 % 0.0 mm
00:51 10.9 °C 6.5 °C 1030.4 hPa North 16.7 km/h 16.7 km/h 74 % 0.0 mm
00:56 10.9 °C 6.5 °C 1030.4 hPa North 18.5 km/h 18.5 km/h 74 % 0.0 mm
00:57 10.9 °C 6.5 °C 1030.4 hPa North 16.7 km/h 16.7 km/h 74 % 0.0 mm
00:58 10.9 °C 6.5 °C 1030.0 hPa NNW 16.7 km/h 16.7 km/h 74 % 0.0 mm
01:03 10.9 °C 6.5 °C 1030.0 hPa North 18.5 km/h 18.5 km/h 74 % 0.0 mm
01:06 10.9 °C 6.5 °C 1030.0 hPa North 18.5 km/h 18.5 km/h 74 % 0.0 mm
01:09 10.9 °C 6.5 °C 1030.0 hPa North 16.7 km/h 16.7 km/h 74 % 0.0 mm
01:11 10.9 °C 6.5 °C 1030.0 hPa NNW 19.3 km/h 19.3 km/h 74 % 0.0 mm
01:16 10.9 °C 6.4 °C 1030.0 hPa North 18.5 km/h 18.5 km/h 74 % 0.0 mm
01:21 10.8 °C 6.4 °C 1030.0 hPa North 16.7 km/h 16.7 km/h 74 % 0.0 mm
01:23 10.8 °C 6.4 °C 1030.0 hPa North 18.5 km/h 18.5 km/h 74 % 0.0 mm
01:25 10.8 °C 6.4 °C 1030.0 hPa North 18.5 km/h 18.5 km/h 74 % 0.0 mm
01:30 10.8 °C 6.4 °C 1030.0 hPa North 18.5 km/h 18.5 km/h 74 % 0.0 mm
01:32 10.8 °C 6.6 °C 1030.0 hPa North 18.5 km/h 18.5 km/h 75 % 0.0 mm
01:37 10.8 °C 6.5 °C 1030.0 hPa North 18.5 km/h 18.5 km/h 75 % 0.0 mm
01:38 10.8 °C 6.5 °C 1030.0 hPa NNE 18.5 km/h 18.5 km/h 75 % 0.0 mm
01:39 10.8 °C 6.5 °C 1030.0 hPa North 16.7 km/h 16.7 km/h 75 % 0.0 mm
01:44 10.8 °C 6.3 °C 1030.0 hPa NNW 14.8 km/h 14.8 km/h 74 % 0.0 mm
01:49 10.7 °C 6.4 °C 1030.0 hPa North 18.5 km/h 18.5 km/h 75 % 0.0 mm
01:51 10.7 °C 6.4 °C 1030.0 hPa NNE 16.7 km/h 16.7 km/h 75 % 0.0 mm
01:56 10.7 °C 6.4 °C 1030.0 hPa North 16.7 km/h 16.7 km/h 75 % 0.0 mm
01:58 10.7 °C 6.4 °C 1030.0 hPa NNE 16.7 km/h 16.7 km/h 75 % 0.0 mm
02:02 10.7 °C 6.4 °C 1030.0 hPa North 18.5 km/h 18.5 km/h 75 % 0.0 mm
02:03 10.7 °C 6.4 °C 1030.0 hPa North 18.5 km/h 18.5 km/h 75 % 0.0 mm
02:08 10.6 °C 6.3 °C 1030.0 hPa North 18.5 km/h 18.5 km/h 75 % 0.0 mm
02:13 10.6 °C 6.3 °C 1030.0 hPa NNW 18.5 km/h 18.5 km/h 75 % 0.0 mm
02:18 10.6 °C 6.3 °C 1030.0 hPa North 18.5 km/h 18.5 km/h 75 % 0.0 mm
02:24 10.6 °C 6.3 °C 1030.0 hPa North 16.7 km/h 16.7 km/h 75 % 0.0 mm
02:25 10.6 °C 6.3 °C 1030.0 hPa North 14.8 km/h 14.8 km/h 75 % 0.0 mm
02:29 10.6 °C 6.3 °C 1030.0 hPa NNW 13.0 km/h 13.0 km/h 75 % 0.0 mm
02:31 10.6 °C 6.3 °C 1030.0 hPa North 13.0 km/h 13.0 km/h 75 % 0.0 mm
02:36 10.6 °C 6.3 °C 1030.0 hPa North 16.7 km/h 16.7 km/h 75 % 0.0 mm
02:39 10.6 °C 6.3 °C 1030.0 hPa NNW 16.7 km/h 16.7 km/h 75 % 0.0 mm
02:42 10.5 °C 6.3 °C 1030.0 hPa NNW 16.7 km/h 16.7 km/h 75 % 0.0 mm
02:44 10.5 °C 6.3 °C 1030.0 hPa North 17.7 km/h 17.7 km/h 75 % 0.0 mm
02:49 10.5 °C 6.3 °C 1030.0 hPa North 18.5 km/h 18.5 km/h 75 % 0.0 mm
02:51 10.5 °C 6.3 °C 1030.0 hPa North 16.7 km/h 16.7 km/h 75 % 0.0 mm
02:56 10.5 °C 6.3 °C 1030.0 hPa North 16.7 km/h 16.7 km/h 75 % 0.0 mm
02:57 10.5 °C 6.3 °C 1030.0 hPa North 16.7 km/h 16.7 km/h 75 % 0.0 mm
03:02 10.5 °C 6.3 °C 1030.0 hPa NNE 16.7 km/h 16.7 km/h 75 % 0.0 mm
03:03 10.5 °C 6.3 °C 1030.0 hPa NNW 16.7 km/h 16.7 km/h 75 % 0.0 mm
03:08 10.6 °C 6.3 °C 1030.0 hPa North 17.7 km/h 17.7 km/h 75 % 0.0 mm
03:13 10.6 °C 6.3 °C 1030.4 hPa North 16.7 km/h 16.7 km/h 75 % 0.0 mm
03:15 10.6 °C 6.3 °C 1030.0 hPa North 18.5 km/h 18.5 km/h 75 % 0.0 mm
03:20 10.6 °C 6.3 °C 1030.4 hPa North 18.5 km/h 18.5 km/h 75 % 0.0 mm
03:22 10.6 °C 6.3 °C 1030.4 hPa NNW 16.7 km/h 16.7 km/h 75 % 0.0 mm
03:24 10.6 °C 6.3 °C 1030.4 hPa North 18.5 km/h 18.5 km/h 75 % 0.0 mm
03:29 10.6 °C 6.3 °C 1030.4 hPa North 18.5 km/h 18.5 km/h 75 % 0.0 mm
03:34 10.6 °C 6.3 °C 1030.4 hPa North 18.5 km/h 18.5 km/h 75 % 0.0 mm
03:40 10.6 °C 6.3 °C 1030.4 hPa North 20.4 km/h 20.4 km/h 75 % 0.0 mm
03:46 10.7 °C 6.2 °C 1030.0 hPa North 16.7 km/h 16.7 km/h 74 % 0.0 mm
03:47 10.7 °C 6.2 °C 1030.0 hPa North 16.7 km/h 16.7 km/h 74 % 0.0 mm
03:51 10.7 °C 6.2 °C 1030.0 hPa North 18.5 km/h 18.5 km/h 74 % 0.0 mm
03:56 10.7 °C 6.2 °C 1030.0 hPa North 18.5 km/h 18.5 km/h 74 % 0.0 mm
03:57 10.7 °C 6.2 °C 1030.0 hPa NNW 18.5 km/h 18.5 km/h 74 % 0.0 mm
04:02 10.7 °C 6.2 °C 1030.0 hPa North 14.8 km/h 14.8 km/h 74 % 0.0 mm
04:03 10.6 °C 6.2 °C 1030.0 hPa North 14.8 km/h 14.8 km/h 74 % 0.0 mm
04:09 10.7 °C 6.4 °C 1030.0 hPa North 18.5 km/h 18.5 km/h 75 % 0.0 mm
04:14 10.7 °C 6.4 °C 1030.0 hPa North 18.5 km/h 18.5 km/h 75 % 0.0 mm
04:19 10.7 °C 6.4 °C 1030.0 hPa NNW 18.5 km/h 18.5 km/h 75 % 0.0 mm
04:20 10.7 °C 6.4 °C 1030.0 hPa NNE 13.0 km/h 13.0 km/h 75 % 0.0 mm
04:25 10.7 °C 6.4 °C 1030.0 hPa North 14.8 km/h 14.8 km/h 75 % 0.0 mm
04:26 10.7 °C 6.4 °C 1030.0 hPa North 14.8 km/h 14.8 km/h 75 % 0.0 mm
04:30 10.8 °C 6.5 °C 1030.0 hPa NNW 16.7 km/h 16.7 km/h 75 % 0.0 mm
04:33 10.8 °C 6.5 °C 1030.0 hPa North 14.8 km/h 14.8 km/h 75 % 0.0 mm
04:35 10.8 °C 6.5 °C 1030.0 hPa North 16.7 km/h 16.7 km/h 75 % 0.0 mm
04:38 10.8 °C 6.6 °C 1030.0 hPa North 17.7 km/h 17.7 km/h 75 % 0.0 mm
04:43 10.8 °C 6.6 °C 1030.0 hPa North 16.7 km/h 16.7 km/h 75 % 0.0 mm
04:46 10.8 °C 6.6 °C 1030.0 hPa North 18.5 km/h 18.5 km/h 75 % 0.0 mm
04:51 10.8 °C 6.6 °C 1030.0 hPa North 13.0 km/h 13.0 km/h 75 % 0.0 mm
04:56 10.8 °C 6.5 °C 1030.0 hPa NNW 14.5 km/h 14.5 km/h 75 % 0.0 mm
04:58 10.8 °C 6.5 °C 1030.0 hPa North 16.7 km/h 16.7 km/h 75 % 0.0 mm
05:03 10.8 °C 6.5 °C 1030.0 hPa North 16.7 km/h 16.7 km/h 75 % 0.0 mm
05:05 10.8 °C 6.5 °C 1030.0 hPa North 14.8 km/h 14.8 km/h 75 % 0.0 mm
05:08 10.8 °C 6.5 °C 1030.0 hPa North 14.8 km/h 14.8 km/h 75 % 0.0 mm
05:11 10.7 °C 6.4 °C 1030.0 hPa North 13.0 km/h 13.0 km/h 75 % 0.0 mm
05:15 10.7 °C 6.4 °C 1030.0 hPa North 14.8 km/h 14.8 km/h 75 % 0.0 mm
05:16 10.8 °C 6.5 °C 1030.0 hPa North 14.8 km/h 14.8 km/h 75 % 0.0 mm
05:21 10.7 °C 6.4 °C 1030.0 hPa North 16.7 km/h 16.7 km/h 75 % 0.0 mm
05:24 10.7 °C 6.4 °C 1030.0 hPa North 18.5 km/h 18.5 km/h 75 % 0.0 mm
05:26 10.7 °C 6.4 °C 1030.0 hPa North 14.8 km/h 14.8 km/h 75 % 0.0 mm
05:32 10.7 °C 6.4 °C 1030.0 hPa NNW 16.7 km/h 16.7 km/h 75 % 0.0 mm
05:35 10.7 °C 6.4 °C 1029.7 hPa North 16.7 km/h 16.7 km/h 75 % 0.0 mm
05:38 10.7 °C 6.4 °C 1029.7 hPa North 14.8 km/h 14.8 km/h 75 % 0.0 mm
05:43 10.7 °C 6.4 °C 1029.7 hPa North 16.7 km/h 16.7 km/h 75 % 0.0 mm
05:46 10.7 °C 6.4 °C 1029.7 hPa NNW 16.7 km/h 16.7 km/h 75 % 0.0 mm
05:48 10.7 °C 6.4 °C 1029.7 hPa NNW 16.7 km/h 16.7 km/h 75 % 0.0 mm
05:53 10.6 °C 6.3 °C 1029.7 hPa North 16.7 km/h 16.7 km/h 75 % 0.0 mm
05:55 10.6 °C 6.5 °C 1029.7 hPa North 16.7 km/h 16.7 km/h 76 % 0.0 mm
05:57 10.6 °C 6.5 °C 1029.7 hPa North 13.0 km/h 13.0 km/h 76 % 0.0 mm
06:02 10.5 °C 6.4 °C 1030.0 hPa NNE 16.7 km/h 16.7 km/h 76 % 0.0 mm
06:04 10.6 °C 6.5 °C 1029.7 hPa North 16.7 km/h 16.7 km/h 76 % 0.0 mm
06:10 10.6 °C 6.5 °C 1030.0 hPa NNE 16.7 km/h 16.7 km/h 76 % 0.0 mm
06:15 10.6 °C 6.5 °C 1030.0 hPa North 18.5 km/h 18.5 km/h 76 % 0.0 mm
06:16 10.6 °C 6.5 °C 1030.0 hPa North 18.5 km/h 18.5 km/h 76 % 0.0 mm
06:21 10.6 °C 6.5 °C 1030.0 hPa North 16.7 km/h 16.7 km/h 76 % 0.0 mm
06:22 10.5 °C 6.4 °C 1030.0 hPa NNE 16.7 km/h 16.7 km/h 76 % 0.0 mm
06:24 10.5 °C 6.4 °C 1030.0 hPa North 18.5 km/h 18.5 km/h 76 % 0.0 mm
06:29 10.4 °C 6.4 °C 1030.0 hPa North 18.5 km/h 18.5 km/h 76 % 0.0 mm
06:30 10.4 °C 6.4 °C 1030.0 hPa North 16.7 km/h 16.7 km/h 76 % 0.0 mm
06:35 10.4 °C 6.3 °C 1030.0 hPa North 16.7 km/h 16.7 km/h 76 % 0.0 mm
06:40 10.3 °C 6.5 °C 1030.0 hPa North 18.5 km/h 18.5 km/h 77 % 0.0 mm
06:45 10.3 °C 6.4 °C 1030.0 hPa North 16.7 km/h 16.7 km/h 77 % 0.0 mm
06:46 10.2 °C 6.4 °C 1030.0 hPa North 16.7 km/h 16.7 km/h 77 % 0.0 mm
06:47 10.2 °C 6.4 °C 1030.0 hPa North 18.5 km/h 18.5 km/h 77 % 0.0 mm
06:52 10.2 °C 6.3 °C 1030.0 hPa NNE 16.7 km/h 16.7 km/h 77 % 0.0 mm
06:54 10.2 °C 6.5 °C 1030.0 hPa NNE 17.7 km/h 17.7 km/h 78 % 0.0 mm
06:57 10.2 °C 6.5 °C 1030.0 hPa North 18.5 km/h 18.5 km/h 78 % 0.0 mm
07:00 10.1 °C 6.4 °C 1030.0 hPa North 17.7 km/h 17.7 km/h 78 % 0.0 mm
07:02 10.1 °C 6.4 °C 1030.0 hPa North 18.5 km/h 18.5 km/h 78 % 0.0 mm
07:06 10.1 °C 6.4 °C 1030.0 hPa North 20.4 km/h 20.4 km/h 78 % 0.0 mm
07:08 10.1 °C 6.4 °C 1030.0 hPa North 16.7 km/h 16.7 km/h 78 % 0.0 mm
07:13 10.1 °C 6.4 °C 1030.4 hPa North 18.5 km/h 18.5 km/h 78 % 0.0 mm
07:18 10.1 °C 6.4 °C 1030.4 hPa North 14.8 km/h 14.8 km/h 78 % 0.0 mm
07:23 10.1 °C 6.4 °C 1030.4 hPa North 18.5 km/h 18.5 km/h 78 % 0.0 mm
07:24 10.1 °C 6.4 °C 1030.4 hPa North 18.5 km/h 18.5 km/h 78 % 0.0 mm
07:29 10.1 °C 6.6 °C 1030.4 hPa North 14.8 km/h 14.8 km/h 79 % 0.0 mm
07:34 10.1 °C 6.6 °C 1030.4 hPa North 14.8 km/h 14.8 km/h 79 % 0.0 mm
07:40 10.1 °C 6.6 °C 1030.4 hPa North 16.7 km/h 16.7 km/h 79 % 0.0 mm
07:43 10.1 °C 6.6 °C 1030.7 hPa North 14.8 km/h 14.8 km/h 79 % 0.0 mm
07:46 10.1 °C 6.6 °C 1030.7 hPa North 14.8 km/h 14.8 km/h 79 % 0.0 mm
07:54 10.1 °C 6.6 °C 1030.7 hPa North 13.0 km/h 13.0 km/h 79 % 0.0 mm
07:55 10.1 °C 6.6 °C 1030.7 hPa North 16.7 km/h 16.7 km/h 79 % 0.0 mm
08:00 10.1 °C 6.6 °C 1030.7 hPa North 12.9 km/h 19.3 km/h 79 % 0.0 mm
08:01 10.1 °C 6.6 °C 1030.7 hPa North 14.8 km/h 14.8 km/h 79 % 0.0 mm
08:04 10.1 °C 6.6 °C 1030.7 hPa North 16.7 km/h 16.7 km/h 79 % 0.0 mm
08:06 10.1 °C 6.6 °C 1030.7 hPa North 16.7 km/h 16.7 km/h 79 % 0.0 mm
08:11 10.1 °C 6.6 °C 1031.0 hPa North 16.7 km/h 16.7 km/h 79 % 0.0 mm
08:13 10.0 °C 6.5 °C 1031.0 hPa NNW 16.7 km/h 16.7 km/h 79 % 0.0 mm
08:18 10.0 °C 6.5 °C 1031.0 hPa North 18.5 km/h 18.5 km/h 79 % 0.0 mm
08:19 10.0 °C 6.5 °C 1031.0 hPa North 18.5 km/h 18.5 km/h 79 % 0.0 mm
08:24 9.9 °C 6.4 °C 1031.0 hPa NNW 14.8 km/h 14.8 km/h 79 % 0.0 mm
08:30 9.9 °C 6.4 °C 1031.0 hPa North 13.0 km/h 13.0 km/h 79 % 0.0 mm
08:35 9.9 °C 6.4 °C 1031.0 hPa NNW 14.8 km/h 14.8 km/h 79 % 0.0 mm
08:36 9.9 °C 6.4 °C 1031.0 hPa North 13.0 km/h 13.0 km/h 79 % 0.0 mm
08:41 9.9 °C 6.4 °C 1031.0 hPa North 11.1 km/h 11.1 km/h 79 % 0.0 mm
08:46 9.9 °C 6.4 °C 1031.0 hPa NNW 14.8 km/h 14.8 km/h 79 % 0.0 mm
08:49 9.9 °C 6.4 °C 1031.0 hPa North 14.8 km/h 14.8 km/h 79 % 0.0 mm
08:52 9.9 °C 6.4 °C 1031.0 hPa North 13.0 km/h 13.0 km/h 79 % 0.0 mm
08:55 9.9 °C 6.4 °C 1031.0 hPa NNW 16.7 km/h 16.7 km/h 79 % 0.0 mm
08:57 9.9 °C 6.4 °C 1031.0 hPa North 14.8 km/h 14.8 km/h 79 % 0.0 mm
09:02 10.0 °C 6.5 °C 1031.4 hPa North 16.7 km/h 16.7 km/h 79 % 0.0 mm
09:03 10.0 °C 6.5 °C 1031.4 hPa North 14.8 km/h 14.8 km/h 79 % 0.0 mm
09:04 10.0 °C 6.5 °C 1031.4 hPa North 13.0 km/h 13.0 km/h 79 % 0.0 mm
09:08 10.1 °C 6.4 °C 1031.4 hPa NNW 14.8 km/h 14.8 km/h 78 % 0.0 mm
09:10 10.1 °C 6.4 °C 1031.4 hPa North 14.8 km/h 14.8 km/h 78 % 0.0 mm
09:14 10.2 °C 6.6 °C 1031.4 hPa North 13.0 km/h 13.0 km/h 78 % 0.0 mm
09:19 10.3 °C 6.7 °C 1031.4 hPa NNW 16.7 km/h 16.7 km/h 78 % 0.0 mm
09:20 10.3 °C 6.7 °C 1031.4 hPa North 11.3 km/h 16.1 km/h 78 % 0.0 mm
09:25 10.5 °C 6.6 °C 1031.7 hPa North 14.8 km/h 14.8 km/h 77 % 0.0 mm
09:26 10.6 °C 6.7 °C 1031.7 hPa North 14.8 km/h 14.8 km/h 77 % 0.0 mm
09:31 10.7 °C 6.8 °C 1031.4 hPa North 13.0 km/h 13.0 km/h 77 % 0.0 mm
09:32 10.7 °C 6.8 °C 1031.7 hPa NNW 14.8 km/h 14.8 km/h 77 % 0.0 mm
09:35 10.9 °C 6.8 °C 1031.7 hPa North 13.0 km/h 13.0 km/h 76 % 0.0 mm
09:38 10.9 °C 6.9 °C 1031.7 hPa North 13.0 km/h 13.0 km/h 76 % 0.0 mm
09:42 11.1 °C 6.8 °C 1031.7 hPa North 14.8 km/h 14.8 km/h 75 % 0.0 mm
09:43 11.1 °C 6.8 °C 1031.7 hPa North 13.0 km/h 13.0 km/h 75 % 0.0 mm
09:48 11.2 °C 6.8 °C 1031.7 hPa North 13.0 km/h 13.0 km/h 74 % 0.0 mm
09:49 11.3 °C 6.8 °C 1031.7 hPa North 13.0 km/h 13.0 km/h 74 % 0.0 mm
09:54 11.4 °C 6.9 °C 1031.7 hPa North 13.0 km/h 13.0 km/h 74 % 0.0 mm
09:59 11.6 °C 6.9 °C 1032.1 hPa North 16.7 km/h 16.7 km/h 73 % 0.0 mm
10:01 11.7 °C 7.1 °C 1032.1 hPa North 11.1 km/h 11.1 km/h 73 % 0.0 mm
10:05 11.8 °C 7.2 °C 1032.1 hPa North 13.0 km/h 13.0 km/h 73 % 0.0 mm
10:09 11.9 °C 7.1 °C 1032.1 hPa North 11.1 km/h 11.1 km/h 72 % 0.0 mm
10:14 12.1 °C 7.2 °C 1032.1 hPa North 11.3 km/h 11.3 km/h 72 % 0.0 mm
10:16 12.1 °C 7.2 °C 1032.1 hPa North 13.0 km/h 13.0 km/h 72 % 0.0 mm
10:21 12.3 °C 7.4 °C 1032.1 hPa North 9.7 km/h 9.7 km/h 72 % 0.0 mm
10:25 12.4 °C 7.3 °C 1032.1 hPa North 11.1 km/h 11.1 km/h 71 % 0.0 mm
10:27 12.4 °C 7.3 °C 1032.1 hPa North 13.0 km/h 13.0 km/h 71 % 0.0 mm
10:32 12.6 °C 7.4 °C 1032.4 hPa NNE 13.0 km/h 13.0 km/h 71 % 0.0 mm
10:33 12.6 °C 7.2 °C 1032.4 hPa North 11.3 km/h 11.3 km/h 70 % 0.0 mm
10:38 12.7 °C 7.4 °C 1032.4 hPa North 9.3 km/h 9.3 km/h 70 % 0.0 mm
10:43 12.9 °C 7.6 °C 1032.4 hPa North 7.4 km/h 7.4 km/h 70 % 0.0 mm
10:47 13.0 °C 7.7 °C 1032.4 hPa North 7.4 km/h 7.4 km/h 70 % 0.0 mm
10:49 13.1 °C 7.8 °C 1032.4 hPa North 5.6 km/h 5.6 km/h 70 % 0.0 mm
10:54 13.3 °C 7.9 °C 1032.4 hPa North 5.6 km/h 5.6 km/h 70 % 0.0 mm
10:55 13.4 °C 8.0 °C 1032.7 hPa North 1.9 km/h 1.9 km/h 70 % 0.0 mm
11:01 13.6 °C 8.2 °C 1032.7 hPa Calm     70 % 0.0 mm
11:07 13.9 °C 8.8 °C 1032.7 hPa Calm     71 % 0.0 mm
11:12 14.2 °C 9.0 °C 1032.7 hPa Calm     71 % 0.0 mm
11:13 14.2 °C 9.1 °C 1032.7 hPa Calm     71 % 0.0 mm
11:17 14.3 °C 8.9 °C 1032.7 hPa East 7.4 km/h 7.4 km/h 70 % 0.0 mm
11:21 14.4 °C 9.1 °C 1032.7 hPa ESE 8.0 km/h 8.0 km/h 70 % 0.0 mm
11:26 14.5 °C 8.9 °C 1032.7 hPa ESE 11.1 km/h 11.1 km/h 69 % 0.0 mm
11:27 14.5 °C 8.9 °C 1032.7 hPa East 13.0 km/h 13.0 km/h 69 % 0.0 mm
11:32 14.4 °C 8.6 °C 1032.7 hPa ESE 11.1 km/h 11.1 km/h 68 % 0.0 mm
11:33 14.4 °C 8.6 °C 1032.7 hPa ESE 11.1 km/h 11.1 km/h 68 % 0.0 mm
11:38 14.5 °C 8.7 °C 1032.7 hPa ESE 11.3 km/h 11.3 km/h 68 % 0.0 mm
11:43 14.6 °C 8.5 °C 1032.7 hPa ESE 9.3 km/h 9.3 km/h 67 % 0.0 mm
11:44 14.6 °C 8.7 °C 1032.7 hPa ESE 11.3 km/h 11.3 km/h 68 % 0.0 mm
11:45 14.6 °C 8.8 °C 1032.7 hPa ESE 11.1 km/h 11.1 km/h 68 % 0.0 mm
11:50 14.6 °C 8.3 °C 1032.7 hPa SE 14.8 km/h 14.8 km/h 66 % 0.0 mm
11:55 14.7 °C 8.6 °C 1032.7 hPa ESE 11.1 km/h 11.1 km/h 67 % 0.0 mm
12:00 14.7 °C 8.4 °C 1032.7 hPa SE 7.4 km/h 7.4 km/h 66 % 0.0 mm
12:02 14.7 °C 8.4 °C 1032.4 hPa SE 8.0 km/h 8.0 km/h 66 % 0.0 mm
12:05 14.7 °C 8.4 °C 1032.4 hPa SE 7.4 km/h 7.4 km/h 66 % 0.0 mm
12:08 14.7 °C 8.4 °C 1032.4 hPa ESE 8.0 km/h 8.0 km/h 66 % 0.0 mm
12:13 14.7 °C 8.2 °C 1032.4 hPa ESE 11.1 km/h 11.1 km/h 65 % 0.0 mm
12:15 14.7 °C 8.4 °C 1032.4 hPa ESE 8.0 km/h 11.3 km/h 66 % 0.0 mm
12:19 14.7 °C 8.4 °C 1032.1 hPa ESE 11.3 km/h 11.3 km/h 66 % 0.0 mm
12:22 14.7 °C 8.4 °C 1032.1 hPa SE 11.1 km/h 11.1 km/h 66 % 0.0 mm
12:27 14.7 °C 8.4 °C 1032.1 hPa SE 7.4 km/h 7.4 km/h 66 % 0.0 mm
12:29 14.7 °C 8.4 °C 1032.1 hPa SE 6.4 km/h 6.4 km/h 66 % 0.0 mm
12:34 14.7 °C 8.4 °C 1032.1 hPa ESE 5.6 km/h 5.6 km/h 66 % 0.0 mm
12:37 14.8 °C 8.7 °C 1032.1 hPa ESE 5.6 km/h 5.6 km/h 67 % 0.0 mm
12:39 14.8 °C 8.7 °C 1032.1 hPa SE 6.4 km/h 6.4 km/h 67 % 0.0 mm
12:44 14.7 °C 8.4 °C 1032.1 hPa SE 5.6 km/h 5.6 km/h 66 % 0.0 mm
12:45 14.7 °C 8.7 °C 1032.1 hPa SE 5.6 km/h 5.6 km/h 67 % 0.0 mm
12:46 14.7 °C 8.7 °C 1032.1 hPa SE 5.6 km/h 5.6 km/h 67 % 0.0 mm
12:51 14.8 °C 8.6 °C 1031.7 hPa SE 5.6 km/h 5.6 km/h 66 % 0.0 mm
12:52 14.9 °C 8.8 °C 1031.7 hPa SE 5.6 km/h 5.6 km/h 67 % 0.0 mm
12:56 14.9 °C 8.6 °C 1031.7 hPa SE 5.6 km/h 5.6 km/h 66 % 0.0 mm
13:01 15.1 °C 8.7 °C 1031.7 hPa SE 3.7 km/h 3.7 km/h 66 % 0.0 mm
13:03 15.1 °C 8.5 °C 1031.7 hPa SE 5.6 km/h 5.6 km/h 65 % 0.0 mm
13:08 15.1 °C 8.7 °C 1031.7 hPa SE 5.6 km/h 5.6 km/h 66 % 0.0 mm
13:13 15.1 °C 8.7 °C 1031.4 hPa SE 5.6 km/h 5.6 km/h 66 % 0.0 mm
13:15 15.1 °C 8.8 °C 1031.4 hPa SE 3.2 km/h 6.4 km/h 66 % 0.0 mm
13:16 15.2 °C 8.9 °C 1031.4 hPa SE 5.6 km/h 5.6 km/h 66 % 0.0 mm
13:20 15.3 °C 8.9 °C 1031.4 hPa SE 6.4 km/h 6.4 km/h 66 % 0.0 mm
13:25 15.3 °C 9.0 °C 1031.4 hPa SE 5.6 km/h 5.6 km/h 66 % 0.0 mm
13:30 15.5 °C 8.9 °C 1031.4 hPa SE 5.6 km/h 5.6 km/h 65 % 0.0 mm
13:32 15.6 °C 9.0 °C 1031.0 hPa SE 5.6 km/h 5.6 km/h 65 % 0.0 mm
13:35 15.7 °C 9.1 °C 1031.0 hPa SE 5.6 km/h 5.6 km/h 65 % 0.0 mm
13:37 15.7 °C 8.9 °C 1031.0 hPa SE 5.6 km/h 5.6 km/h 64 % 0.0 mm
13:42 15.9 °C 9.3 °C 1031.0 hPa SE 5.6 km/h 5.6 km/h 65 % 0.0 mm
13:43 15.9 °C 9.4 °C 1031.0 hPa SE 3.7 km/h 3.7 km/h 65 % 0.0 mm
13:48 16.0 °C 9.2 °C 1031.0 hPa SE 3.7 km/h 3.7 km/h 64 % 0.0 mm
13:55 16.1 °C 9.3 °C 1031.0 hPa SE 5.6 km/h 5.6 km/h 64 % 0.0 mm
14:00 16.1 °C 9.5 °C 1031.0 hPa SE 3.7 km/h 3.7 km/h 65 % 0.0 mm
14:01 16.1 °C 9.5 °C 1030.7 hPa SE 3.2 km/h 3.2 km/h 65 % 0.0 mm
14:06 16.2 °C 9.3 °C 1030.7 hPa SE 3.2 km/h 3.2 km/h 64 % 0.0 mm
14:08 16.2 °C 9.6 °C 1030.7 hPa SE 3.7 km/h 3.7 km/h 65 % 0.0 mm
14:11 16.2 °C 9.4 °C 1030.7 hPa SE 5.6 km/h 5.6 km/h 64 % 0.0 mm
14:15 16.2 °C 9.6 °C 1030.7 hPa SE 3.7 km/h 3.7 km/h 65 % 0.0 mm
14:16 16.2 °C 9.4 °C 1030.7 hPa SE 3.7 km/h 3.7 km/h 64 % 0.0 mm
14:21 16.0 °C 9.2 °C 1030.7 hPa SE 5.6 km/h 5.6 km/h 64 % 0.0 mm
14:22 15.9 °C 9.1 °C 1030.7 hPa SE 5.6 km/h 5.6 km/h 64 % 0.0 mm
14:24 15.9 °C 9.3 °C 1030.7 hPa SE 5.6 km/h 5.6 km/h 65 % 0.0 mm
14:29 15.7 °C 9.4 °C 1030.7 hPa South 5.6 km/h 5.6 km/h 66 % 0.0 mm
14:33 15.5 °C 8.9 °C 1030.7 hPa SSE 3.7 km/h 3.7 km/h 65 % 0.0 mm
14:36 15.5 °C 8.9 °C 1030.7 hPa Calm     65 % 0.0 mm
14:40 15.6 °C 9.1 °C 1030.7 hPa SSE 6.4 km/h 6.4 km/h 65 % 0.0 mm
14:41 15.7 °C 8.9 °C 1030.4 hPa SSE 5.6 km/h 5.6 km/h 64 % 0.0 mm
14:46 15.7 °C 9.2 °C 1030.4 hPa SSE 7.4 km/h 7.4 km/h 65 % 0.0 mm
14:47 15.7 °C 9.2 °C 1030.4 hPa South 7.4 km/h 7.4 km/h 65 % 0.0 mm
14:52 15.7 °C 8.9 °C 1030.4 hPa South 5.6 km/h 5.6 km/h 64 % 0.0 mm
14:56 15.8 °C 9.0 °C 1030.4 hPa South 5.6 km/h 5.6 km/h 64 % 0.0 mm
15:01 15.8 °C 8.8 °C 1030.4 hPa SSW 7.4 km/h 7.4 km/h 63 % 0.0 mm
15:02 15.8 °C 9.3 °C 1030.4 hPa SSW 7.4 km/h 7.4 km/h 65 % 0.0 mm
15:07 15.8 °C 9.0 °C 1030.4 hPa South 7.4 km/h 7.4 km/h 64 % 0.0 mm
15:08 15.8 °C 9.0 °C 1030.4 hPa South 7.4 km/h 7.4 km/h 64 % 0.0 mm
15:11 15.7 °C 8.9 °C 1030.4 hPa South 7.4 km/h 7.4 km/h 64 % 0.0 mm
15:13 15.6 °C 8.8 °C 1030.4 hPa South 7.4 km/h 7.4 km/h 64 % 0.0 mm
15:16 15.6 °C 8.8 °C 1030.4 hPa SSW 11.1 km/h 11.1 km/h 64 % 0.0 mm
15:19 15.7 °C 9.1 °C 1030.4 hPa South 8.0 km/h 8.0 km/h 65 % 0.0 mm
15:20 15.6 °C 9.1 °C 1030.4 hPa South 7.4 km/h 7.4 km/h 65 % 0.0 mm
15:26 15.7 °C 8.9 °C 1030.0 hPa SSW 6.4 km/h 6.4 km/h 64 % 0.0 mm
15:31 15.7 °C 9.3 °C 1030.0 hPa South 9.3 km/h 9.3 km/h 66 % 0.0 mm
15:32 15.7 °C 9.3 °C 1030.0 hPa South 8.0 km/h 8.0 km/h 66 % 0.0 mm
15:34 15.6 °C 9.1 °C 1030.0 hPa South 9.3 km/h 9.3 km/h 65 % 0.0 mm
15:37 15.6 °C 8.8 °C 1030.0 hPa South 5.6 km/h 5.6 km/h 64 % 0.0 mm
15:42 15.6 °C 9.0 °C 1030.0 hPa South 7.4 km/h 7.4 km/h 65 % 0.0 mm
15:43 15.6 °C 9.0 °C 1030.0 hPa South 7.4 km/h 7.4 km/h 65 % 0.0 mm
15:44 15.6 °C 9.0 °C 1030.0 hPa South 7.4 km/h 7.4 km/h 65 % 0.0 mm
15:49 15.6 °C 9.2 °C 1030.0 hPa SSW 7.4 km/h 7.4 km/h 66 % 0.0 mm
15:50 15.6 °C 9.0 °C 1030.0 hPa SSW 7.4 km/h 7.4 km/h 65 % 0.0 mm
15:55 15.6 °C 9.3 °C 1030.0 hPa SSW 9.7 km/h 9.7 km/h 66 % 0.0 mm
16:00 15.6 °C 9.0 °C 1030.0 hPa South 9.3 km/h 9.3 km/h 65 % 0.0 mm
16:02 15.6 °C 9.0 °C 1030.0 hPa SSW 9.3 km/h 9.3 km/h 65 % 0.0 mm
16:07 15.6 °C 9.0 °C 1030.0 hPa SSW 7.4 km/h 7.4 km/h 65 % 0.0 mm
16:08 15.6 °C 9.0 °C 1030.0 hPa SSW 9.3 km/h 9.3 km/h 65 % 0.0 mm
16:11 15.5 °C 8.7 °C 1029.7 hPa SSW 9.7 km/h 9.7 km/h 64 % 0.0 mm
16:14 15.5 °C 8.9 °C 1029.7 hPa SSW 9.3 km/h 9.3 km/h 65 % 0.0 mm
16:19 15.5 °C 8.9 °C 1030.0 hPa SSW 6.4 km/h 6.4 km/h 65 % 0.0 mm
16:20 15.5 °C 8.9 °C 1030.0 hPa SSW 8.0 km/h 8.0 km/h 65 % 0.0 mm
16:23 15.5 °C 8.7 °C 1030.0 hPa SSW 6.4 km/h 6.4 km/h 64 % 0.0 mm
16:28 15.6 °C 8.8 °C 1030.0 hPa SW 7.4 km/h 7.4 km/h 64 % 0.0 mm
16:33 15.6 °C 8.6 °C 1030.0 hPa SW 5.6 km/h 5.6 km/h 63 % 0.0 mm
16:34 15.6 °C 8.6 °C 1030.0 hPa SW 5.6 km/h 5.6 km/h 63 % 0.0 mm
16:39 15.6 °C 8.6 °C 1030.0 hPa SW 8.0 km/h 8.0 km/h 63 % 0.0 mm
16:43 15.6 °C 8.6 °C 1030.0 hPa SW 7.4 km/h 7.4 km/h 63 % 0.0 mm
16:45 15.6 °C 8.8 °C 1030.0 hPa SW 8.0 km/h 8.0 km/h 64 % 0.0 mm
16:50 15.6 °C 8.6 °C 1030.0 hPa SW 5.6 km/h 5.6 km/h 63 % 0.0 mm
16:51 15.6 °C 8.6 °C 1030.0 hPa SW 6.4 km/h 6.4 km/h 63 % 0.0 mm
16:56 15.6 °C 9.0 °C 1029.7 hPa SW 9.3 km/h 9.3 km/h 65 % 0.0 mm
17:00 15.5 °C 8.7 °C 1029.7 hPa SW 7.4 km/h 7.4 km/h 64 % 0.0 mm
17:02 15.5 °C 8.7 °C 1029.7 hPa SW 8.0 km/h 8.0 km/h 64 % 0.0 mm
17:06 15.4 °C 8.9 °C 1030.0 hPa SW 9.3 km/h 9.3 km/h 65 % 0.0 mm
17:10 15.4 °C 9.1 °C 1030.0 hPa SW 8.0 km/h 8.0 km/h 66 % 0.0 mm
17:16 15.3 °C 9.0 °C 1030.0 hPa SW 7.4 km/h 7.4 km/h 66 % 0.0 mm
17:19 15.3 °C 8.9 °C 1030.0 hPa WSW 7.4 km/h 7.4 km/h 66 % 0.0 mm
17:22 15.2 °C 8.9 °C 1030.0 hPa WSW 8.0 km/h 8.0 km/h 66 % 0.0 mm
17:27 15.2 °C 8.8 °C 1030.0 hPa WSW 7.4 km/h 7.4 km/h 66 % 0.0 mm
17:29 15.2 °C 8.6 °C 1030.0 hPa WSW 7.4 km/h 7.4 km/h 65 % 0.0 mm
17:31 15.1 °C 8.6 °C 1030.0 hPa WSW 7.4 km/h 7.4 km/h 65 % 0.0 mm
17:35 15.1 °C 8.5 °C 1030.0 hPa WSW 9.3 km/h 9.3 km/h 65 % 0.0 mm
17:40 15.1 °C 8.9 °C 1030.0 hPa WSW 6.4 km/h 6.4 km/h 67 % 0.0 mm
17:45 15.0 °C 8.9 °C 1030.0 hPa WSW 8.0 km/h 8.0 km/h 67 % 0.0 mm
17:48 14.9 °C 9.1 °C 1030.0 hPa WSW 7.4 km/h 7.4 km/h 68 % 0.0 mm
17:49 14.9 °C 9.1 °C 1030.0 hPa West 7.4 km/h 7.4 km/h 68 % 0.0 mm
17:54 14.8 °C 8.7 °C 1030.0 hPa WSW 7.4 km/h 7.4 km/h 67 % 0.0 mm
17:58 14.7 °C 8.7 °C 1030.0 hPa WSW 5.6 km/h 5.6 km/h 67 % 0.0 mm
18:01 14.7 °C 8.7 °C 1030.0 hPa WSW 3.7 km/h 3.7 km/h 67 % 0.0 mm
18:06 14.7 °C 8.6 °C 1030.0 hPa WSW 5.6 km/h 5.6 km/h 67 % 0.0 mm
18:07 14.7 °C 8.6 °C 1030.0 hPa WSW 5.6 km/h 5.6 km/h 67 % 0.0 mm
18:08 14.6 °C 8.6 °C 1030.0 hPa WSW 5.6 km/h 5.6 km/h 67 % 0.0 mm
18:12 14.6 °C 8.8 °C 1030.4 hPa Calm     68 % 0.0 mm
18:17 14.6 °C 8.7 °C 1030.4 hPa West 5.6 km/h 5.6 km/h 68 % 0.0 mm
18:19 14.6 °C 8.7 °C 1030.4 hPa West 3.7 km/h 3.7 km/h 68 % 0.0 mm
18:24 14.6 °C 8.7 °C 1030.4 hPa Calm     68 % 0.0 mm
18:25 14.5 °C 8.7 °C 1030.4 hPa Calm     68 % 0.0 mm
18:26 14.5 °C 8.7 °C 1030.4 hPa Calm     68 % 0.0 mm
18:31 14.4 °C 8.6 °C 1030.4 hPa Calm     68 % 0.0 mm
18:33 14.4 °C 8.6 °C 1030.4 hPa Calm     68 % 0.0 mm
18:38 14.4 °C 8.6 °C 1030.4 hPa Calm     68 % 0.0 mm
18:43 14.3 °C 8.5 °C 1030.4 hPa Calm     68 % 0.0 mm
18:44 14.3 °C 8.5 °C 1030.4 hPa Calm     68 % 0.0 mm
18:49 14.3 °C 8.5 °C 1030.4 hPa Calm     68 % 0.0 mm
18:54 14.1 °C 8.5 °C 1030.4 hPa Calm     69 % 0.0 mm
18:55 14.1 °C 8.4 °C 1030.4 hPa Calm     69 % 0.0 mm
19:00 13.6 °C 8.2 °C 1030.4 hPa Calm     70 % 0.0 mm
19:01 13.6 °C 8.2 °C 1030.4 hPa Calm     70 % 0.0 mm
19:03 13.4 °C 8.3 °C 1030.4 hPa Calm     71 % 0.0 mm
19:07 13.3 °C 8.1 °C 1030.4 hPa Calm     71 % 0.0 mm
19:10 13.2 °C 8.3 °C 1030.4 hPa NNW 5.6 km/h 5.6 km/h 72 % 0.0 mm
19:15 13.1 °C 8.1 °C 1030.4 hPa North 5.6 km/h 5.6 km/h 72 % 0.0 mm
19:16 13.1 °C 8.1 °C 1030.4 hPa North 5.6 km/h 5.6 km/h 72 % 0.0 mm
19:17 13.0 °C 8.1 °C 1030.4 hPa North 6.4 km/h 6.4 km/h 72 % 0.0 mm
19:22 12.8 °C 8.1 °C 1030.4 hPa NNE 8.0 km/h 8.0 km/h 73 % 0.0 mm
19:27 12.4 °C 7.9 °C 1030.4 hPa North 8.0 km/h 8.0 km/h 74 % 0.0 mm
19:28 12.3 °C 7.8 °C 1030.4 hPa North 7.4 km/h 7.4 km/h 74 % 0.0 mm
19:33 12.2 °C 7.9 °C 1030.4 hPa North 5.6 km/h 5.6 km/h 75 % 0.0 mm
19:37 12.1 °C 7.8 °C 1030.4 hPa NNW 9.7 km/h 9.7 km/h 75 % 0.0 mm
19:38 12.1 °C 7.8 °C 1030.4 hPa NNW 9.3 km/h 9.3 km/h 75 % 0.0 mm
19:43 12.2 °C 7.9 °C 1030.0 hPa NNW 5.6 km/h 5.6 km/h 75 % 0.0 mm
19:48 12.2 °C 7.9 °C 1030.4 hPa NNW 5.6 km/h 5.6 km/h 75 % 0.0 mm
19:49 12.2 °C 7.9 °C 1030.4 hPa NNW 5.6 km/h 5.6 km/h 75 % 0.0 mm
19:50 12.2 °C 7.9 °C 1030.4 hPa NNW 5.6 km/h 5.6 km/h 75 % 0.0 mm
19:55 12.2 °C 7.9 °C 1030.4 hPa NNE 7.4 km/h 7.4 km/h 75 % 0.0 mm
19:56 12.2 °C 7.9 °C 1030.4 hPa NNE 6.4 km/h 6.4 km/h 75 % 0.0 mm
19:59 12.1 °C 7.8 °C 1030.4 hPa NNE 7.4 km/h 7.4 km/h 75 % 0.0 mm
20:01 12.0 °C 7.7 °C 1030.4 hPa North 8.0 km/h 8.0 km/h 75 % 0.0 mm
20:06 11.8 °C 7.7 °C 1030.4 hPa North 9.3 km/h 9.3 km/h 76 % 0.0 mm
20:11 11.6 °C 7.5 °C 1030.4 hPa North 13.0 km/h 13.0 km/h 76 % 0.0 mm
20:12 11.6 °C 7.4 °C 1030.4 hPa North 13.0 km/h 13.0 km/h 76 % 0.0 mm
20:17 11.5 °C 7.6 °C 1030.4 hPa NNW 11.1 km/h 11.1 km/h 77 % 0.0 mm
20:18 11.4 °C 7.6 °C 1030.4 hPa NNW 11.3 km/h 11.3 km/h 77 % 0.0 mm
20:23 11.4 °C 7.5 °C 1030.4 hPa NNW 8.0 km/h 8.0 km/h 77 % 0.0 mm
20:25 11.3 °C 7.4 °C 1030.4 hPa North 7.4 km/h 7.4 km/h 77 % 0.0 mm
20:30 11.3 °C 7.4 °C 1030.7 hPa North 6.4 km/h 6.4 km/h 77 % 0.0 mm
20:31 11.2 °C 7.5 °C 1030.7 hPa North 5.6 km/h 5.6 km/h 78 % 0.0 mm
20:35 11.2 °C 7.4 °C 1030.7 hPa North 8.0 km/h 8.0 km/h 78 % 0.0 mm
20:36 11.2 °C 7.4 °C 1030.7 hPa North 11.1 km/h 11.1 km/h 78 % 0.0 mm
20:41 11.1 °C 7.4 °C 1030.4 hPa NNW 14.8 km/h 14.8 km/h 78 % 0.0 mm
20:42 11.1 °C 7.4 °C 1030.4 hPa North 11.3 km/h 11.3 km/h 78 % 0.0 mm
20:43 11.1 °C 7.6 °C 1030.4 hPa North 13.0 km/h 13.0 km/h 79 % 0.0 mm
20:48 11.1 °C 7.4 °C 1030.4 hPa North 11.1 km/h 11.1 km/h 78 % 0.0 mm
20:51 11.1 °C 7.4 °C 1030.4 hPa North 11.1 km/h 11.1 km/h 78 % 0.0 mm
20:54 11.1 °C 7.4 °C 1030.4 hPa North 9.3 km/h 9.3 km/h 78 % 0.0 mm
21:00 11.0 °C 7.5 °C 1030.4 hPa North 8.0 km/h 9.7 km/h 79 % 0.0 mm
21:03 11.0 °C 7.5 °C 1030.4 hPa NNE 9.3 km/h 9.3 km/h 79 % 0.0 mm
21:06 10.9 °C 7.4 °C 1030.4 hPa NNE 9.7 km/h 9.7 km/h 79 % 0.0 mm
21:09 10.9 °C 7.4 °C 1030.4 hPa NNE 13.0 km/h 13.0 km/h 79 % 0.0 mm
21:11 10.8 °C 7.3 °C 1030.4 hPa North 14.8 km/h 14.8 km/h 79 % 0.0 mm
21:14 10.7 °C 7.2 °C 1030.4 hPa North 11.1 km/h 11.1 km/h 79 % 0.0 mm
21:17 10.7 °C 7.2 °C 1030.4 hPa North 13.0 km/h 13.0 km/h 79 % 0.0 mm
21:20 10.6 °C 7.1 °C 1030.4 hPa North 11.1 km/h 11.1 km/h 79 % 0.0 mm
21:23 10.6 °C 7.1 °C 1030.4 hPa North 9.3 km/h 9.3 km/h 79 % 0.0 mm
21:28 10.6 °C 7.1 °C 1030.4 hPa North 6.4 km/h 7.1 km/h 79 % 0.0 mm
21:32 10.6 °C 7.1 °C 1030.4 hPa North 9.7 km/h 9.7 km/h 79 % 0.0 mm
21:33 10.6 °C 7.1 °C 1030.4 hPa North 11.1 km/h 11.1 km/h 79 % 0.0 mm
21:39 10.6 °C 7.1 °C 1030.4 hPa North 7.4 km/h 7.4 km/h 79 % 0.0 mm
21:44 10.6 °C 7.1 °C 1030.4 hPa North 5.6 km/h 5.6 km/h 79 % 0.0 mm
21:47 10.6 °C 7.1 °C 1030.4 hPa North 11.1 km/h 11.1 km/h 79 % 0.0 mm
21:51 10.5 °C 7.0 °C 1030.4 hPa North 13.0 km/h 13.0 km/h 79 % 0.0 mm
21:54 10.4 °C 6.9 °C 1030.4 hPa North 9.7 km/h 9.7 km/h 79 % 0.0 mm
21:58 10.3 °C 6.8 °C 1030.4 hPa North 16.7 km/h 16.7 km/h 79 % 0.0 mm
21:59 10.3 °C 6.8 °C 1030.4 hPa North 16.7 km/h 16.7 km/h 79 % 0.0 mm
22:04 10.2 °C 6.9 °C 1030.7 hPa North 11.1 km/h 11.1 km/h 80 % 0.0 mm
22:07 10.2 °C 6.9 °C 1030.7 hPa NNW 14.8 km/h 14.8 km/h 80 % 0.0 mm
22:08 10.2 °C 6.9 °C 1030.4 hPa North 14.8 km/h 14.8 km/h 80 % 0.0 mm
22:12 10.1 °C 6.8 °C 1030.4 hPa North 9.7 km/h 9.7 km/h 80 % 0.0 mm
22:17 10.2 °C 6.9 °C 1030.7 hPa North 9.7 km/h 9.7 km/h 80 % 0.0 mm
22:18 10.2 °C 6.9 °C 1030.7 hPa North 9.3 km/h 9.3 km/h 80 % 0.0 mm
22:23 10.3 °C 7.0 °C 1030.7 hPa North 11.1 km/h 11.1 km/h 80 % 0.0 mm
22:28 10.3 °C 6.8 °C 1030.7 hPa North 9.7 km/h 9.7 km/h 79 % 0.0 mm
22:30 10.3 °C 6.8 °C 1030.7 hPa North 13.0 km/h 13.0 km/h 79 % 0.0 mm
22:33 10.3 °C 6.8 °C 1030.4 hPa North 11.1 km/h 11.1 km/h 79 % 0.0 mm
22:38 10.4 °C 6.9 °C 1030.7 hPa North 11.1 km/h 11.1 km/h 79 % 0.0 mm
22:39 10.4 °C 6.9 °C 1030.4 hPa North 11.1 km/h 11.1 km/h 79 % 0.0 mm
22:44 10.3 °C 6.8 °C 1030.7 hPa North 7.4 km/h 7.4 km/h 79 % 0.0 mm
22:46 10.3 °C 6.8 °C 1030.7 hPa North 5.6 km/h 5.6 km/h 79 % 0.0 mm
22:49 10.2 °C 6.7 °C 1030.7 hPa North 6.4 km/h 6.4 km/h 79 % 0.0 mm
22:51 10.2 °C 6.7 °C 1030.7 hPa North 9.7 km/h 9.7 km/h 79 % 0.0 mm
22:58 9.9 °C 6.4 °C 1030.7 hPa North 14.8 km/h 14.8 km/h 79 % 0.0 mm
23:01 9.8 °C 6.6 °C 1030.7 hPa NNW 14.8 km/h 14.8 km/h 80 % 0.0 mm
23:03 9.8 °C 6.5 °C 1030.7 hPa North 11.1 km/h 11.1 km/h 80 % 0.0 mm
23:08 9.7 °C 6.4 °C 1030.7 hPa North 12.9 km/h 12.9 km/h 80 % 0.0 mm
23:10 9.7 °C 6.4 °C 1030.7 hPa North 9.7 km/h 14.5 km/h 80 % 0.0 mm
23:15 9.7 °C 6.4 °C 1031.0 hPa North 11.1 km/h 11.1 km/h 80 % 0.0 mm
23:20 9.7 °C 6.4 °C 1031.0 hPa North 11.1 km/h 11.1 km/h 80 % 0.0 mm
23:21 9.7 °C 6.4 °C 1031.0 hPa North 11.1 km/h 11.1 km/h 80 % 0.0 mm
23:26 9.7 °C 6.4 °C 1031.0 hPa North 11.1 km/h 11.1 km/h 80 % 0.0 mm
23:31 9.6 °C 6.3 °C 1031.0 hPa NNW 9.3 km/h 9.3 km/h 80 % 0.0 mm
23:32 9.6 °C 6.3 °C 1031.0 hPa North 13.0 km/h 13.0 km/h 80 % 0.0 mm
23:37 9.7 °C 6.4 °C 1031.0 hPa North 9.3 km/h 9.3 km/h 80 % 0.0 mm
23:38 9.7 °C 6.4 °C 1031.0 hPa North 9.3 km/h 9.3 km/h 80 % 0.0 mm
23:43 9.7 °C 6.4 °C 1031.0 hPa North 9.7 km/h 9.7 km/h 80 % 0.0 mm
23:48 9.6 °C 6.3 °C 1031.0 hPa North 16.7 km/h 16.7 km/h 80 % 0.0 mm
23:49 9.6 °C 6.3 °C 1031.0 hPa North 14.8 km/h 14.8 km/h 80 % 0.0 mm
23:53 9.6 °C 6.3 °C 1031.0 hPa NNW 11.3 km/h 11.3 km/h 80 % 0.0 mm
23:58 9.6 °C 6.3 °C 1031.0 hPa North 9.3 km/h 9.3 km/h 80 % 0.0 mm
23:59 9.5 °C 6.2 °C 1031.0 hPa North 11.1 km/h 11.1 km/h 80 % 0.0 mm
Puerto Banus, Marbella
Elogios de Weather Underground - 2.25 mb

Guión original por  Jim McMurry - jmcmurry@mwt.net Adaptado para la plantilla por  Wim van der Kuil - Leuven-Template.eu

Usted encontrará nuestra información del tiempo también en:

Weather Underground

Iberian Peninsula Weather Network